Time;durP1;ratioP1;P1;durP2;ratioP2;P2;SDS_P1;SDS_P2;PMS_P1;PMS_P2;Temp;Humidity;BMP_temperature;BMP_pressure;BME280_temperature;BME280_humidity;BME280_pressure;Samples;Min_cycle;Max_cycle;Signal;HPM_P1;HPM_P2
2022/04/12 00:00:20;;;;;;;4.20;3.78;;;16.30;56.70;;;;;;4993753;28;20085;-68
2022/04/12 00:02:45;;;;;;;4.82;3.80;;;16.20;56.60;;;;;;4993449;28;20077;-69
2022/04/12 00:05:12;;;;;;;5.72;3.78;;;16.20;56.70;;;;;;4993248;28;20475;-68
2022/04/12 00:07:39;;;;;;;4.22;3.47;;;16.20;56.70;;;;;;4993479;28;20021;-68
2022/04/12 00:10:06;;;;;;;7.15;3.58;;;16.20;56.80;;;;;;4993340;28;20030;-68
2022/04/12 00:12:32;;;;;;;6.57;4.13;;;16.20;56.90;;;;;;4995908;28;20487;-68
2022/04/12 00:14:57;;;;;;;7.10;4.03;;;16.10;56.80;;;;;;4997340;28;20037;-68
2022/04/12 00:20:09;;;;;;;6.43;3.53;;;16.10;57.00;;;;;;4996614;28;20050;-65
2022/04/12 00:22:35;;;;;;;7.05;4.55;;;16.10;57.00;;;;;;4997215;28;20033;-68
2022/04/12 00:25:01;;;;;;;6.03;4.13;;;16.10;57.10;;;;;;4997091;28;20019;-68
2022/04/12 00:27:27;;;;;;;5.82;3.90;;;16.10;57.10;;;;;;4997067;28;20026;-68
2022/04/12 00:29:53;;;;;;;5.45;3.97;;;16.10;57.20;;;;;;4996798;28;20049;-68
2022/04/12 00:32:19;;;;;;;6.05;3.72;;;16.00;57.10;;;;;;4996852;28;20033;-68
2022/04/12 00:34:44;;;;;;;3.72;2.97;;;16.00;57.20;;;;;;4996471;28;20019;-68
2022/04/12 00:37:10;;;;;;;4.70;3.40;;;16.00;57.30;;;;;;4996938;28;20033;-66
2022/04/12 00:39:37;;;;;;;5.28;3.60;;;16.00;57.30;;;;;;4996767;28;20019;-68
2022/04/12 00:42:03;;;;;;;4.70;3.67;;;16.00;57.30;;;;;;4979230;28;20403;-68
2022/04/12 00:44:29;;;;;;;6.05;4.05;;;16.00;57.40;;;;;;4996517;28;20028;-61
2022/04/12 00:46:55;;;;;;;6.97;3.67;;;15.90;57.50;;;;;;4996627;28;20109;-68
2022/04/12 00:49:20;;;;;;;4.85;3.75;;;15.90;57.50;;;;;;4996552;28;20019;-68
2022/04/12 00:51:46;;;;;;;5.55;3.78;;;15.90;57.50;;;;;;4996497;28;20105;-67
2022/04/12 00:54:12;;;;;;;8.32;3.55;;;15.90;57.60;;;;;;4996683;28;20093;-68
2022/04/12 00:56:37;;;;;;;4.90;3.70;;;15.90;57.60;;;;;;4996323;28;20015;-67
2022/04/12 00:59:03;;;;;;;5.55;3.55;;;15.90;57.70;;;;;;4996548;28;20464;-68
2022/04/12 01:01:29;;;;;;;5.72;3.55;;;15.80;57.80;;;;;;4996361;28;20062;-68
2022/04/12 01:03:55;;;;;;;6.93;3.70;;;15.90;57.70;;;;;;4996369;28;20065;-68
2022/04/12 01:06:21;;;;;;;5.03;3.60;;;15.80;57.80;;;;;;4996439;28;20435;-68
2022/04/12 01:08:48;;;;;;;4.60;3.45;;;15.80;57.90;;;;;;4996406;28;20464;-68
2022/04/12 01:11:13;;;;;;;4.68;3.33;;;15.80;57.90;;;;;;4995961;28;20030;-63
2022/04/12 01:13:39;;;;;;;6.35;3.42;;;15.80;58.00;;;;;;4996244;28;20030;-67
2022/04/12 01:16:07;;;;;;;4.35;2.80;;;15.80;58.00;;;;;;4992979;28;20034;-63
2022/04/12 01:18:34;;;;;;;3.90;3.10;;;15.80;58.00;;;;;;4988859;28;20043;-68
2022/04/12 01:21:00;;;;;;;6.00;3.22;;;15.70;58.00;;;;;;4976377;28;20046;-68
2022/04/12 01:23:31;;;;;;;5.57;3.20;;;15.70;58.10;;;;;;4975816;28;20042;-68
2022/04/12 01:25:57;;;;;;;3.95;2.58;;;15.70;58.10;;;;;;4976355;28;20033;-68
2022/04/12 01:28:22;;;;;;;3.20;2.20;;;15.70;58.20;;;;;;4976698;28;20121;-68
2022/04/12 01:30:51;;;;;;;6.13;3.10;;;15.70;58.30;;;;;;4975938;28;20103;-68
2022/04/12 01:33:16;;;;;;;4.38;2.63;;;15.70;58.40;;;;;;4976238;28;20030;-68
2022/04/12 01:35:42;;;;;;;3.95;2.75;;;15.60;58.30;;;;;;4976174;28;20098;-68
2022/04/12 01:38:07;;;;;;;4.00;2.60;;;15.60;58.30;;;;;;4976212;28;20059;-67
2022/04/12 01:40:33;;;;;;;4.15;2.40;;;15.60;58.30;;;;;;4975873;28;20062;-68
2022/04/12 01:42:58;;;;;;;3.97;2.92;;;15.60;58.30;;;;;;4976045;28;20026;-68
2022/04/12 01:45:24;;;;;;;4.15;2.60;;;15.60;58.40;;;;;;4975886;28;20062;-67
2022/04/12 01:47:50;;;;;;;3.90;2.65;;;15.60;58.50;;;;;;4976021;28;20033;-67
2022/04/12 01:50:16;;;;;;;4.45;2.40;;;15.60;58.60;;;;;;4975915;28;20491;-68
2022/04/12 01:52:41;;;;;;;4.10;2.60;;;15.50;58.50;;;;;;4975974;28;20035;-67
2022/04/12 01:55:09;;;;;;;2.38;2.03;;;15.50;58.60;;;;;;4975879;28;20019;-68
2022/04/12 01:57:34;;;;;;;3.67;2.60;;;15.50;58.60;;;;;;4975766;28;20031;-67
2022/04/12 02:00:00;;;;;;;5.22;2.70;;;15.50;58.60;;;;;;4975620;28;20034;-68
2022/04/12 02:02:26;;;;;;;3.97;2.40;;;15.50;58.60;;;;;;4975635;28;20524;-68
2022/04/12 02:04:52;;;;;;;4.35;2.28;;;15.50;58.60;;;;;;4975854;28;20034;-67
2022/04/12 02:07:17;;;;;;;4.50;2.80;;;15.40;58.70;;;;;;4975577;28;20361;-68
2022/04/12 02:09:43;;;;;;;3.25;2.20;;;15.40;58.70;;;;;;4975448;28;20065;-68
2022/04/12 02:12:10;;;;;;;4.78;2.30;;;15.40;58.70;;;;;;4975614;28;20469;-68
2022/04/12 02:14:36;;;;;;;4.18;2.65;;;15.40;58.80;;;;;;4975372;28;20034;-68
2022/04/12 02:17:01;;;;;;;4.32;2.50;;;15.40;58.80;;;;;;4975344;28;20035;-68
2022/04/12 02:19:27;;;;;;;3.60;2.50;;;15.40;58.80;;;;;;4975326;28;20041;-68
2022/04/12 02:21:52;;;;;;;3.28;2.10;;;15.40;58.90;;;;;;4975132;28;20809;-68
2022/04/12 02:24:18;;;;;;;5.40;2.70;;;15.30;58.80;;;;;;4975382;28;20030;-68
2022/04/12 02:26:44;;;;;;;3.78;2.35;;;15.30;58.90;;;;;;4975144;28;20464;-68
2022/04/12 02:29:12;;;;;;;4.68;2.75;;;15.30;59.00;;;;;;4975072;28;20026;-68
2022/04/12 02:31:38;;;;;;;4.63;2.70;;;15.30;59.00;;;;;;4974962;28;20388;-68
2022/04/12 02:34:03;;;;;;;5.68;2.58;;;15.30;59.00;;;;;;4975021;28;20018;-68
2022/04/12 02:36:29;;;;;;;4.13;2.90;;;15.30;59.10;;;;;;4975175;28;20023;-68
2022/04/12 02:38:55;;;;;;;4.88;2.42;;;15.30;59.10;;;;;;4974911;28;20030;-68
2022/04/12 02:41:20;;;;;;;3.83;2.67;;;15.30;59.20;;;;;;4975110;28;20038;-67
2022/04/12 02:43:46;;;;;;;3.72;2.63;;;15.20;59.20;;;;;;4974746;28;20023;-68
2022/04/12 02:46:11;;;;;;;3.85;2.53;;;15.20;59.20;;;;;;4974933;28;20142;-68
2022/04/12 02:48:37;;;;;;;3.88;2.55;;;15.20;59.20;;;;;;4974881;28;20049;-67
2022/04/12 02:51:02;;;;;;;3.40;2.38;;;15.20;59.20;;;;;;4975185;28;20093;-67
2022/04/12 02:53:28;;;;;;;4.45;2.53;;;15.20;59.30;;;;;;4975448;28;20073;-66
2022/04/12 02:55:53;;;;;;;3.80;2.60;;;15.20;59.30;;;;;;4974673;28;20097;-68
2022/04/12 02:58:19;;;;;;;3.75;2.97;;;15.20;59.40;;;;;;4974606;28;20098;-68
2022/04/12 03:00:45;;;;;;;3.42;2.22;;;15.20;59.30;;;;;;4974667;28;20469;-68
2022/04/12 03:03:11;;;;;;;4.53;2.78;;;15.20;59.30;;;;;;4974774;28;20423;-68
2022/04/12 03:05:36;;;;;;;3.78;2.90;;;15.10;59.30;;;;;;4974816;28;20018;-69
2022/04/12 03:08:02;;;;;;;3.28;2.30;;;15.10;59.40;;;;;;4974370;28;20058;-69
2022/04/12 03:10:27;;;;;;;3.28;2.42;;;15.10;59.40;;;;;;4974862;28;20019;-68
2022/04/12 03:12:53;;;;;;;5.68;2.47;;;15.10;59.50;;;;;;4974362;28;20027;-68
2022/04/12 03:15:18;;;;;;;3.92;2.30;;;15.10;59.50;;;;;;4974761;28;20495;-67
2022/04/12 03:17:44;;;;;;;3.22;2.40;;;15.10;59.60;;;;;;4974292;28;20362;-68
2022/04/12 03:20:10;;;;;;;5.18;2.25;;;15.10;60.30;;;;;;4974373;28;20039;-68
2022/04/12 03:22:36;;;;;;;3.58;2.60;;;15.00;59.60;;;;;;4974392;28;20113;-67
2022/04/12 03:25:01;;;;;;;3.67;2.25;;;15.10;59.70;;;;;;4974775;28;20069;-68
2022/04/12 03:27:27;;;;;;;5.15;2.35;;;15.00;59.70;;;;;;4974328;28;20023;-67
2022/04/12 03:29:53;;;;;;;2.83;2.33;;;15.00;59.80;;;;;;4974171;28;20031;-68
2022/04/12 03:32:18;;;;;;;6.65;4.38;;;15.00;59.80;;;;;;4974317;28;20560;-67
2022/04/12 03:34:45;;;;;;;4.95;2.70;;;15.00;59.80;;;;;;4956912;28;20384;-67
2022/04/12 03:37:11;;;;;;;3.95;2.40;;;15.00;59.90;;;;;;4974290;28;20376;-67
2022/04/12 03:39:36;;;;;;;6.80;2.20;;;15.00;59.90;;;;;;4974186;28;20495;-68
2022/04/12 03:42:04;;;;;;;3.97;2.55;;;15.00;59.90;;;;;;4973793;28;20039;-66
2022/04/12 03:44:30;;;;;;;3.33;2.35;;;14.90;59.90;;;;;;4974298;28;20015;-68
2022/04/12 03:46:56;;;;;;;4.75;2.72;;;15.00;60.00;;;;;;4977809;28;20113;-68
2022/04/12 03:49:21;;;;;;;4.32;2.58;;;14.90;60.00;;;;;;4980534;28;20049;-68
2022/04/12 03:51:47;;;;;;;3.17;2.30;;;14.90;60.00;;;;;;4980666;28;20031;-69
2022/04/12 03:54:12;;;;;;;4.60;2.30;;;14.90;60.00;;;;;;4980657;28;20102;-68
2022/04/12 03:56:38;;;;;;;5.00;3.10;;;14.90;60.10;;;;;;4980370;28;20114;-68
2022/04/12 03:59:04;;;;;;;4.00;2.53;;;14.90;60.10;;;;;;4980608;28;20078;-68
2022/04/12 04:01:29;;;;;;;3.03;2.42;;;14.90;60.10;;;;;;4980570;28;20031;-68
2022/04/12 04:03:56;;;;;;;4.70;2.47;;;14.90;60.20;;;;;;4980437;28;20074;-68
2022/04/12 04:06:21;;;;;;;3.58;2.15;;;14.80;60.20;;;;;;4980588;28;20022;-68
2022/04/12 04:08:47;;;;;;;3.25;2.40;;;14.80;60.20;;;;;;4980500;28;20027;-68
2022/04/12 04:11:12;;;;;;;5.93;2.75;;;14.80;60.30;;;;;;4980527;28;20118;-65
2022/04/12 04:13:38;;;;;;;3.00;2.50;;;14.80;60.20;;;;;;4980766;28;20526;-68
2022/04/12 04:16:04;;;;;;;4.10;3.17;;;14.80;60.20;;;;;;4980113;28;20066;-67
2022/04/12 04:18:30;;;;;;;3.67;2.78;;;14.80;60.40;;;;;;4980442;28;20038;-68
2022/04/12 04:20:55;;;;;;;5.25;2.45;;;14.80;60.30;;;;;;4980200;28;20384;-68
2022/04/12 04:23:21;;;;;;;4.88;2.63;;;14.80;60.40;;;;;;4980470;28;20469;-68
2022/04/12 04:25:47;;;;;;;3.58;2.50;;;14.70;60.40;;;;;;4980000;28;20507;-67
2022/04/12 04:28:14;;;;;;;4.03;3.00;;;14.70;60.50;;;;;;4980602;28;20070;-68
2022/04/12 04:30:44;;;;;;;6.22;2.80;;;14.70;60.50;;;;;;4980285;28;20519;-68
2022/04/12 04:33:10;;;;;;;4.43;2.60;;;14.70;60.50;;;;;;4980447;28;20023;-68
2022/04/12 04:35:36;;;;;;;6.10;2.63;;;14.70;60.60;;;;;;4980219;28;20064;-69
2022/04/12 04:38:02;;;;;;;3.80;2.67;;;14.70;60.50;;;;;;4980240;28;20432;-67
2022/04/12 04:40:28;;;;;;;4.82;2.65;;;14.70;60.60;;;;;;4979921;28;20023;-69
2022/04/12 04:42:54;;;;;;;3.25;2.40;;;14.60;60.70;;;;;;4980320;28;20507;-67
2022/04/12 04:45:20;;;;;;;4.70;2.67;;;14.60;60.70;;;;;;4980232;28;20069;-69
2022/04/12 04:47:49;;;;;;;3.42;2.60;;;14.60;60.80;;;;;;4980156;28;20069;-67
2022/04/12 04:50:16;;;;;;;4.78;2.95;;;14.60;60.70;;;;;;4979854;28;20050;-69
2022/04/12 04:52:42;;;;;;;4.30;3.08;;;14.60;60.90;;;;;;4980278;28;20034;-63
2022/04/12 04:55:08;;;;;;;3.95;2.70;;;14.60;60.90;;;;;;4979559;28;20026;-68
2022/04/12 04:57:40;;;;;;;4.97;3.22;;;14.50;60.90;;;;;;4979038;28;20046;-67
2022/04/12 05:00:08;;;;;;;3.72;2.83;;;14.50;60.90;;;;;;4976402;28;20420;-59
2022/04/12 05:02:34;;;;;;;4.35;2.90;;;14.50;61.00;;;;;;4988080;28;20042;-55
2022/04/12 05:05:01;;;;;;;4.57;2.47;;;14.50;61.10;;;;;;4975679;28;20015;-64
2022/04/12 05:07:27;;;;;;;5.45;2.75;;;14.50;61.10;;;;;;4974742;28;20507;-67
2022/04/12 05:09:53;;;;;;;4.70;3.20;;;14.50;61.20;;;;;;4976439;28;20026;-66
2022/04/12 05:12:19;;;;;;;5.05;3.30;;;14.50;61.30;;;;;;4976668;28;20035;-67
2022/04/12 05:14:44;;;;;;;4.80;2.83;;;14.50;61.30;;;;;;4976845;28;20130;-66
2022/04/12 05:17:10;;;;;;;6.38;3.47;;;14.40;61.30;;;;;;4976650;28;20033;-67
2022/04/12 05:19:36;;;;;;;5.75;3.10;;;14.40;61.40;;;;;;4976604;28;20041;-63
2022/04/12 05:22:01;;;;;;;4.07;3.05;;;14.40;61.30;;;;;;4976387;28;20073;-65
2022/04/12 05:24:27;;;;;;;5.47;3.60;;;14.40;61.40;;;;;;4976193;28;20026;-65
2022/04/12 05:26:52;;;;;;;5.30;3.03;;;14.40;61.60;;;;;;4976341;28;20023;-66
2022/04/12 05:29:18;;;;;;;4.32;2.97;;;14.40;61.60;;;;;;4976463;28;20031;-66
2022/04/12 05:31:43;;;;;;;4.72;3.00;;;14.40;61.70;;;;;;4976179;28;20030;-64
2022/04/12 05:34:09;;;;;;;8.18;3.60;;;14.40;61.70;;;;;;4976362;28;20045;-67
2022/04/12 05:36:34;;;;;;;5.28;3.15;;;14.40;61.80;;;;;;4976435;28;20046;-66
2022/04/12 05:39:00;;;;;;;5.75;3.50;;;14.40;61.80;;;;;;4975865;28;20105;-57
2022/04/12 05:41:25;;;;;;;5.63;3.30;;;14.30;61.90;;;;;;4976307;28;20041;-67
2022/04/12 05:43:51;;;;;;;5.07;3.50;;;14.30;61.90;;;;;;4976422;28;20058;-67
2022/04/12 05:46:16;;;;;;;5.95;3.47;;;14.30;61.90;;;;;;4975939;28;20496;-65
2022/04/12 05:48:42;;;;;;;5.50;3.22;;;14.30;62.00;;;;;;4976196;28;20069;-65
2022/04/12 05:51:07;;;;;;;5.88;3.30;;;14.30;62.10;;;;;;4976087;28;20030;-67
2022/04/12 05:53:34;;;;;;;5.05;3.63;;;14.30;62.20;;;;;;4976039;28;20046;-67
2022/04/12 05:55:59;;;;;;;5.50;3.30;;;14.30;62.20;;;;;;4976019;28;20088;-64
2022/04/12 05:58:25;;;;;;;4.55;3.20;;;14.30;62.30;;;;;;4976035;28;20467;-67
2022/04/12 06:00:50;;;;;;;7.07;2.90;;;14.30;62.40;;;;;;4975942;28;20053;-67
2022/04/12 06:03:16;;;;;;;5.75;3.58;;;14.30;62.40;;;;;;4975672;28;20023;-67
2022/04/12 06:05:42;;;;;;;8.90;3.30;;;14.30;62.50;;;;;;4975693;28;20031;-63
2022/04/12 06:08:08;;;;;;;4.78;3.25;;;14.30;62.60;;;;;;4975408;28;20033;-67
2022/04/12 06:10:33;;;;;;;7.63;3.22;;;14.30;62.70;;;;;;4975474;28;20026;-59
2022/04/12 06:13:00;;;;;;;4.90;3.50;;;14.30;62.80;;;;;;4975450;28;20391;-66
2022/04/12 06:15:26;;;;;;;7.38;3.17;;;14.40;62.90;;;;;;4975515;28;20046;-65
2022/04/12 06:17:51;;;;;;;5.38;3.10;;;14.40;62.90;;;;;;4975734;28;20046;-60
2022/04/12 06:20:18;;;;;;;5.82;3.20;;;14.40;62.90;;;;;;4975225;28;20035;-67
2022/04/12 06:22:44;;;;;;;6.85;3.83;;;14.40;63.10;;;;;;4975175;28;20038;-67
2022/04/12 06:25:11;;;;;;;7.75;3.75;;;14.40;63.10;;;;;;4975363;28;20027;-68
2022/04/12 06:27:51;;;;;;;7.53;3.13;;;14.50;63.20;;;;;;4975212;28;20023;-67
2022/04/12 06:30:19;;;;;;;4.45;3.45;;;14.50;63.20;;;;;;4975150;28;20362;-67
2022/04/12 06:32:46;;;;;;;6.35;3.10;;;14.50;63.20;;;;;;4975079;28;20479;-65
2022/04/12 06:35:13;;;;;;;6.38;3.15;;;14.50;63.40;;;;;;4975120;28;20041;-65
2022/04/12 06:37:40;;;;;;;6.47;3.00;;;14.60;63.40;;;;;;4974646;28;20488;-54
2022/04/12 06:40:07;;;;;;;4.65;3.10;;;14.60;63.50;;;;;;4974993;28;20023;-67
2022/04/12 06:42:33;;;;;;;6.50;3.45;;;14.70;63.50;;;;;;4957752;28;20050;-60
2022/04/12 06:44:58;;;;;;;9.32;4.25;;;14.70;63.60;;;;;;4975088;28;20022;-65
2022/04/12 06:47:24;;;;;;;5.35;3.22;;;14.80;63.70;;;;;;4973411;28;20384;-67
2022/04/12 06:49:51;;;;;;;3.42;2.70;;;14.80;63.80;;;;;;4974653;28;20477;-61
2022/04/12 06:52:19;;;;;;;5.85;2.97;;;14.90;63.80;;;;;;4974828;28;20019;-66
2022/04/12 06:54:46;;;;;;;6.40;3.55;;;14.90;64.50;;;;;;4975009;28;20029;-67
2022/04/12 06:57:12;;;;;;;6.25;2.63;;;14.90;63.90;;;;;;4974784;28;20026;-67
2022/04/12 06:59:37;;;;;;;4.38;2.53;;;15.00;63.80;;;;;;4974733;28;20551;-67
2022/04/12 07:02:04;;;;;;;9.07;3.00;;;15.10;63.90;;;;;;4974501;28;20491;-66
2022/04/12 07:04:30;;;;;;;4.85;2.88;;;15.10;63.80;;;;;;4974544;28;20023;-66
2022/04/12 07:06:56;;;;;;;6.50;3.15;;;15.10;63.90;;;;;;4974770;28;20030;-67
2022/04/12 07:09:27;;;;;;;4.72;3.22;;;15.10;64.00;;;;;;4974403;28;20023;-68
2022/04/12 07:11:53;;;;;;;4.93;2.85;;;15.20;64.00;;;;;;4974773;28;20046;-66
2022/04/12 07:14:19;;;;;;;3.55;2.47;;;15.20;64.00;;;;;;4993978;28;20014;-67
2022/04/12 07:16:45;;;;;;;4.93;2.70;;;15.30;63.90;;;;;;4993073;28;20510;-67
2022/04/12 07:19:10;;;;;;;6.40;3.08;;;15.30;64.00;;;;;;4984203;28;20118;-66
2022/04/12 07:21:36;;;;;;;6.40;2.53;;;15.40;63.90;;;;;;4991567;28;20113;-67
2022/04/12 07:24:05;;;;;;;3.00;2.33;;;15.40;64.50;;;;;;4973414;28;20053;-65
2022/04/12 07:26:31;;;;;;;5.65;2.97;;;15.50;64.00;;;;;;4983495;28;20499;-66
2022/04/12 07:28:57;;;;;;;5.38;3.03;;;15.50;64.10;;;;;;4993156;28;20022;-68
2022/04/12 07:31:22;;;;;;;6.57;3.13;;;15.50;64.20;;;;;;4993073;28;20031;-65
2022/04/12 07:33:48;;;;;;;8.55;3.00;;;15.60;64.30;;;;;;4991723;28;20045;-68
2022/04/12 07:36:14;;;;;;;4.88;3.17;;;15.60;64.40;;;;;;4993834;28;20037;-67
2022/04/12 07:38:41;;;;;;;7.03;3.15;;;15.60;64.30;;;;;;4993574;28;20054;-68
2022/04/12 07:41:06;;;;;;;9.77;3.33;;;15.70;64.50;;;;;;4993701;28;20026;-68
2022/04/12 07:43:32;;;;;;;6.40;3.45;;;15.70;64.50;;;;;;4993574;28;20037;-68
2022/04/12 07:45:57;;;;;;;7.97;3.47;;;15.80;65.30;;;;;;4993738;28;20033;-64
2022/04/12 07:48:23;;;;;;;5.85;3.05;;;15.80;64.70;;;;;;4975920;28;20030;-68
2022/04/12 07:50:48;;;;;;;5.18;3.10;;;15.90;64.70;;;;;;4992720;28;20027;-67
2022/04/12 07:53:14;;;;;;;7.43;2.72;;;15.90;64.70;;;;;;4993482;28;20527;-67
2022/04/12 07:55:40;;;;;;;6.03;2.50;;;16.00;64.80;;;;;;4993269;28;20357;-68
2022/04/12 07:58:05;;;;;;;6.07;2.40;;;16.00;64.80;;;;;;4993406;28;20027;-66
2022/04/12 08:00:31;;;;;;;7.43;2.67;;;16.00;64.70;;;;;;4993296;28;20026;-68
2022/04/12 08:02:57;;;;;;;4.90;2.05;;;16.10;64.80;;;;;;4993213;28;20035;-68
2022/04/12 08:05:23;;;;;;;4.68;2.05;;;16.10;64.70;;;;;;4993358;28;20026;-68
2022/04/12 08:07:48;;;;;;;5.72;2.35;;;16.20;64.80;;;;;;4989112;28;20030;-67
2022/04/12 08:10:18;;;;;;;5.20;2.28;;;16.30;65.00;;;;;;4973358;28;20420;-68
2022/04/12 08:12:44;;;;;;;6.13;2.75;;;16.30;65.80;;;;;;4974127;28;20019;-68
2022/04/12 08:15:11;;;;;;;4.57;2.60;;;16.30;65.10;;;;;;4973744;28;20473;-68
2022/04/12 08:17:37;;;;;;;6.32;2.72;;;16.40;65.10;;;;;;4973730;28;20121;-68
2022/04/12 08:20:05;;;;;;;4.15;2.47;;;16.40;65.20;;;;;;4973630;28;20118;-67
2022/04/12 08:22:31;;;;;;;7.03;2.58;;;16.50;65.20;;;;;;4973917;28;20027;-68
2022/04/12 08:24:58;;;;;;;3.83;2.42;;;16.50;65.10;;;;;;4973795;28;20051;-68
2022/04/12 08:27:24;;;;;;;4.70;2.42;;;16.50;65.00;;;;;;4973928;28;20034;-64
2022/04/12 08:29:50;;;;;;;5.32;1.63;;;16.60;65.00;;;;;;4973666;28;20022;-64
2022/04/12 08:32:16;;;;;;;3.20;1.75;;;16.60;64.70;;;;;;4956532;28;20026;-68
2022/04/12 08:34:42;;;;;;;6.15;2.55;;;16.70;64.70;;;;;;4977453;28;20031;-68
2022/04/12 08:37:08;;;;;;;4.18;2.20;;;16.70;65.00;;;;;;4983094;28;20040;-63
2022/04/12 08:39:33;;;;;;;5.00;2.15;;;16.80;65.00;;;;;;4987538;28;20027;-65
2022/04/12 08:42:00;;;;;;;4.90;2.15;;;16.80;65.00;;;;;;4977364;28;20050;-68
2022/04/12 08:44:26;;;;;;;4.72;1.98;;;16.90;64.80;;;;;;4993028;28;20026;-57
2022/04/12 08:46:55;;;;;;;3.15;1.95;;;16.90;64.80;;;;;;4996575;28;20035;-54
2022/04/12 08:49:23;;;;;;;5.53;2.67;;;16.90;64.50;;;;;;4993295;28;20039;-65
2022/04/12 08:51:49;;;;;;;5.55;2.53;;;17.00;64.90;;;;;;4976902;28;20070;-68
2022/04/12 08:54:17;;;;;;;3.85;1.70;;;17.10;64.90;;;;;;4986335;28;20026;-68
2022/04/12 08:56:44;;;;;;;3.95;2.10;;;17.10;64.60;;;;;;4994065;28;20041;-68
2022/04/12 08:59:10;;;;;;;6.32;2.35;;;17.10;64.80;;;;;;4977017;28;20499;-68
2022/04/12 09:01:35;;;;;;;9.38;2.88;;;17.20;64.90;;;;;;4985049;28;20117;-64
2022/04/12 09:04:01;;;;;;;6.30;2.33;;;17.20;64.80;;;;;;4996125;28;20033;-60
2022/04/12 09:06:27;;;;;;;3.90;2.25;;;17.20;64.70;;;;;;4996012;28;20049;-66
2022/04/12 09:08:53;;;;;;;7.00;2.38;;;17.30;64.70;;;;;;4996390;28;20097;-67
2022/04/12 09:11:18;;;;;;;5.38;2.38;;;17.30;64.70;;;;;;4996007;28;20461;-68
2022/04/12 09:14:00;;;;;;;5.07;2.10;;;17.40;64.70;;;;;;4995495;28;20038;-64
2022/04/12 09:16:28;;;;;;;6.72;2.17;;;17.40;64.60;;;;;;4995649;28;20470;-68
2022/04/12 09:18:55;;;;;;;7.85;2.35;;;17.40;64.80;;;;;;4995867;28;20566;-67
2022/04/12 09:21:22;;;;;;;6.43;2.25;;;17.50;65.10;;;;;;4995109;28;20093;-69
2022/04/12 09:23:49;;;;;;;5.72;2.35;;;17.50;65.10;;;;;;4985260;28;20023;-59
2022/04/12 09:26:35;;;;;;;6.60;2.47;;;17.60;65.30;;;;;;4976374;28;20030;-61
2022/04/12 09:29:00;;;;;;;8.20;2.60;;;17.60;65.00;;;;;;4976029;28;20097;-60
2022/04/12 09:31:26;;;;;;;6.57;1.58;;;17.60;65.20;;;;;;4975852;28;20023;-68
2022/04/12 09:33:53;;;;;;;6.78;2.05;;;17.60;64.90;;;;;;4981078;28;20510;-67
2022/04/12 09:36:19;;;;;;;3.95;1.60;;;17.70;64.90;;;;;;4995393;28;20027;-68
2022/04/12 09:38:46;;;;;;;6.57;2.25;;;17.70;64.80;;;;;;4995325;28;20023;-68
2022/04/12 09:41:26;;;;;;;4.25;1.85;;;17.80;65.00;;;;;;4995418;28;20030;-63
2022/04/12 09:43:58;;;;;;;3.50;1.77;;;17.80;65.00;;;;;;4994632;28;20031;-68
2022/04/12 09:46:26;;;;;;;6.53;2.05;;;17.80;64.60;;;;;;4995128;28;20482;-67
2022/04/12 09:48:55;;;;;;;3.67;1.98;;;17.90;64.90;;;;;;4995406;28;20025;-68
2022/04/12 09:51:23;;;;;;;3.67;2.15;;;17.90;65.00;;;;;;4995298;28;20037;-62
2022/04/12 09:53:50;;;;;;;2.65;1.23;;;17.90;65.00;;;;;;4976706;28;20026;-68
2022/04/12 09:56:19;;;;;;;3.70;1.45;;;17.90;64.40;;;;;;4975690;28;20428;-63
2022/04/12 09:58:48;;;;;;;4.82;1.83;;;18.00;64.40;;;;;;4975569;28;20473;-61
2022/04/12 10:01:16;;;;;;;7.93;1.95;;;18.00;64.50;;;;;;4981807;28;20022;-68
2022/04/12 10:03:46;;;;;;;2.97;1.42;;;18.10;64.80;;;;;;4994986;28;20054;-67
2022/04/12 10:06:16;;;;;;;1.67;1.00;;;18.10;64.70;;;;;;4993279;28;20022;-68
2022/04/12 10:08:42;;;;;;;3.47;1.35;;;18.10;63.90;;;;;;4975867;28;20033;-66
2022/04/12 10:11:08;;;;;;;7.45;1.58;;;18.10;63.90;;;;;;4989956;28;20534;-65
2022/04/12 10:13:34;;;;;;;3.03;0.90;;;18.20;64.10;;;;;;4994731;28;20030;-68
2022/04/12 10:16:00;;;;;;;3.53;1.70;;;18.20;63.90;;;;;;4977035;28;20026;-68
2022/04/12 10:18:27;;;;;;;4.68;1.58;;;18.20;64.10;;;;;;4994770;28;20041;-58
2022/04/12 10:20:53;;;;;;;6.22;1.30;;;18.20;64.30;;;;;;4977528;28;20042;-55
2022/04/12 10:23:23;;;;;;;2.83;1.17;;;18.30;64.20;;;;;;4994842;28;20033;-58
2022/04/12 10:26:00;;;;;;;3.03;1.10;;;18.30;63.50;;;;;;4994864;28;20419;-60
2022/04/12 10:28:28;;;;;;;2.40;0.88;;;18.40;63.50;;;;;;4976422;28;20019;-67
2022/04/12 10:31:16;;;;;;;5.35;2.03;;;18.40;63.50;;;;;;4994859;28;20506;-64
2022/04/12 10:33:51;;;;;;;2.05;0.80;;;18.40;63.80;;;;;;4986340;28;20069;-66
2022/04/12 10:36:16;;;;;;;4.43;1.25;;;18.40;63.50;;;;;;4987919;28;20022;-66
2022/04/12 10:38:44;;;;;;;3.17;1.67;;;18.50;63.20;;;;;;4974761;28;20423;-66
2022/04/12 10:41:36;;;;;;;3.28;1.55;;;18.50;63.60;;;;;;4987961;28;20035;-65
2022/04/12 10:44:02;;;;;;;4.78;1.65;;;18.50;63.60;;;;;;4991105;28;20369;-65
2022/04/12 10:46:46;;;;;;;2.75;1.50;;;18.50;63.70;;;;;;4994204;28;20084;-58
2022/04/12 10:49:12;;;;;;;1.83;0.93;;;18.60;63.70;;;;;;4994188;28;20109;-68
2022/04/12 10:51:39;;;;;;;2.47;1.10;;;18.60;63.40;;;;;;4994104;28;20080;-64
2022/04/12 10:54:06;;;;;;;3.08;1.38;;;18.60;63.20;;;;;;4994142;28;20018;-62
2022/04/12 10:56:32;;;;;;;3.50;1.17;;;18.70;63.10;;;;;;4992504;28;20049;-66
2022/04/12 10:58:57;;;;;;;2.60;1.20;;;18.70;63.10;;;;;;4993743;28;20419;-64
2022/04/12 11:01:33;;;;;;;2.60;1.23;;;18.70;63.10;;;;;;4993449;28;20395;-66
2022/04/12 11:04:03;;;;;;;4.18;1.25;;;18.80;63.10;;;;;;4993785;28;20027;-64
2022/04/12 11:06:34;;;;;;;2.50;0.80;;;18.80;62.90;;;;;;4984111;28;20033;-68
2022/04/12 11:09:16;;;;;;;2.28;1.40;;;18.80;63.00;;;;;;4989501;28;20114;-65
2022/04/12 11:11:44;;;;;;;6.30;1.63;;;18.90;63.50;;;;;;4975691;28;20045;-62
2022/04/12 11:14:24;;;;;;;3.80;0.77;;;18.90;63.10;;;;;;4987598;28;20377;-67
2022/04/12 11:16:53;;;;;;;7.43;1.50;;;18.90;63.00;;;;;;4982352;28;20061;-67
2022/04/12 11:19:21;;;;;;;2.85;1.23;;;18.90;62.80;;;;;;4980176;28;20057;-63
2022/04/12 11:21:54;;;;;;;6.00;1.63;;;19.00;63.00;;;;;;4989850;28;20046;-64
2022/04/12 11:24:22;;;;;;;3.55;1.40;;;19.00;63.10;;;;;;4978159;28;20103;-60
2022/04/12 11:27:05;;;;;;;2.85;1.50;;;19.00;63.00;;;;;;4982104;28;20089;-63
2022/04/12 11:29:31;;;;;;;1.73;0.90;;;19.10;63.40;;;;;;4967197;28;20030;-67
2022/04/12 11:31:58;;;;;;;3.78;1.40;;;19.10;62.90;;;;;;4990298;28;20072;-63
2022/04/12 11:34:28;;;;;;;2.30;1.20;;;19.10;63.00;;;;;;4984892;28;20033;-66
2022/04/12 11:36:56;;;;;;;2.30;0.88;;;19.10;62.80;;;;;;4982456;28;20095;-61
2022/04/12 11:39:27;;;;;;;2.83;1.23;;;19.10;62.70;;;;;;4977383;28;20038;-66
2022/04/12 11:41:57;;;;;;;7.50;1.30;;;19.20;62.90;;;;;;4988219;28;20034;-61
2022/04/12 11:44:23;;;;;;;2.25;1.10;;;19.20;63.00;;;;;;4975619;28;20043;-64
2022/04/12 11:47:01;;;;;;;1.83;1.00;;;19.20;63.40;;;;;;4981967;28;20027;-63
2022/04/12 11:49:29;;;;;;;3.72;1.38;;;19.30;63.60;;;;;;4986545;28;20044;-64
2022/04/12 11:51:54;;;;;;;3.22;1.30;;;19.30;63.50;;;;;;4975702;28;20037;-66
2022/04/12 11:54:23;;;;;;;3.38;1.17;;;19.30;63.30;;;;;;4986735;28;20022;-65
2022/04/12 11:57:15;;;;;;;2.05;0.80;;;19.30;63.30;;;;;;4981701;28;20030;-68
2022/04/12 11:59:58;;;;;;;2.75;0.88;;;19.40;63.50;;;;;;4987926;28;20033;-67
2022/04/12 12:02:26;;;;;;;3.45;1.27;;;19.40;63.50;;;;;;4978322;28;20093;-63
2022/04/12 12:04:56;;;;;;;1.77;1.27;;;19.40;63.30;;;;;;4983830;28;20068;-65
2022/04/12 12:07:22;;;;;;;4.70;1.52;;;19.40;63.10;;;;;;4978019;28;20038;-65
2022/04/12 12:10:09;;;;;;;4.45;1.13;;;19.50;63.20;;;;;;4978576;28;20027;-68
2022/04/12 12:12:37;;;;;;;4.72;1.52;;;19.50;63.50;;;;;;4970204;28;20041;-65
2022/04/12 12:15:23;;;;;;;3.97;1.30;;;19.50;63.10;;;;;;4986839;28;20061;-68
2022/04/12 12:17:51;;;;;;;6.18;0.98;;;19.60;63.20;;;;;;4978722;28;20117;-63
2022/04/12 12:20:19;;;;;;;2.38;1.00;;;19.60;62.90;;;;;;4981424;28;20038;-65
2022/04/12 12:22:47;;;;;;;3.13;0.90;;;19.60;62.90;;;;;;4985820;28;20142;-67
2022/04/12 12:25:21;;;;;;;1.80;0.95;;;19.60;63.00;;;;;;4987668;28;20030;-66
2022/04/12 12:27:53;;;;;;;2.55;0.80;;;19.60;62.90;;;;;;4978507;28;20093;-67
2022/04/12 12:30:27;;;;;;;1.83;0.88;;;19.70;63.00;;;;;;4981164;28;20015;-65
2022/04/12 12:32:56;;;;;;;3.78;1.10;;;19.70;63.00;;;;;;4984516;28;20042;-67
2022/04/12 12:35:27;;;;;;;3.58;1.23;;;19.70;63.00;;;;;;4988636;28;20372;-65
2022/04/12 12:38:02;;;;;;;4.57;1.30;;;19.70;63.00;;;;;;4979434;28;20538;-65
2022/04/12 12:40:30;;;;;;;2.85;0.82;;;19.80;63.10;;;;;;4982281;28;20106;-66
2022/04/12 12:42:55;;;;;;;3.75;1.42;;;19.80;62.80;;;;;;4984184;28;20031;-62
2022/04/12 12:45:23;;;;;;;2.72;1.00;;;19.80;62.70;;;;;;4988386;28;20029;-67
2022/04/12 12:47:55;;;;;;;2.88;0.93;;;19.90;62.60;;;;;;4978753;28;20464;-68
2022/04/12 12:50:23;;;;;;;2.92;1.27;;;19.90;62.60;;;;;;4993997;28;20030;-66